sensor_id;sensor_type;location;lat;lon;timestamp;noise_LAeq;noise_LA_min;noise_LA_max;noise_LA01;noise_LA95
66458;Laerm;56835;52.198;4.826;2023-04-25T00:00:06;54.96;53.00;56.38;;
66458;Laerm;56835;52.198;4.826;2023-04-25T00:00:17;54.93;53.20;56.65;;
66458;Laerm;56835;52.198;4.826;2023-04-25T00:00:27;54.95;53.22;56.13;;
66458;Laerm;56835;52.198;4.826;2023-04-25T00:00:37;54.93;52.69;56.33;;
66458;Laerm;56835;52.198;4.826;2023-04-25T00:00:47;54.93;53.30;56.47;;
66458;Laerm;56835;52.198;4.826;2023-04-25T00:00:58;54.89;53.09;56.60;;
66458;Laerm;56835;52.198;4.826;2023-04-25T00:01:08;54.89;52.72;56.12;;
66458;Laerm;56835;52.198;4.826;2023-04-25T00:01:19;55.00;52.96;56.26;;
66458;Laerm;56835;52.198;4.826;2023-04-25T00:01:30;54.96;53.44;56.25;;
66458;Laerm;56835;52.198;4.826;2023-04-25T00:01:40;54.91;53.26;56.48;;
66458;Laerm;56835;52.198;4.826;2023-04-25T00:01:50;54.98;53.20;56.11;;
66458;Laerm;56835;52.198;4.826;2023-04-25T00:02:01;54.94;52.87;56.85;;
66458;Laerm;56835;52.198;4.826;2023-04-25T00:02:12;55.00;52.47;56.52;;
66458;Laerm;56835;52.198;4.826;2023-04-25T00:02:23;55.00;53.11;56.43;;
66458;Laerm;56835;52.198;4.826;2023-04-25T00:02:33;54.89;53.10;56.43;;
66458;Laerm;56835;52.198;4.826;2023-04-25T00:02:45;54.91;52.94;56.34;;
66458;Laerm;56835;52.198;4.826;2023-04-25T00:02:56;54.85;52.46;56.16;;
66458;Laerm;56835;52.198;4.826;2023-04-25T00:03:09;54.95;52.72;56.54;;
66458;Laerm;56835;52.198;4.826;2023-04-25T00:03:20;54.97;52.57;56.85;;
66458;Laerm;56835;52.198;4.826;2023-04-25T00:03:31;54.91;53.25;56.43;;
66458;Laerm;56835;52.198;4.826;2023-04-25T00:03:41;54.88;53.17;56.32;;
66458;Laerm;56835;52.198;4.826;2023-04-25T00:03:52;54.95;53.35;56.36;;
66458;Laerm;56835;52.198;4.826;2023-04-25T00:04:02;55.06;52.75;56.14;;
66458;Laerm;56835;52.198;4.826;2023-04-25T00:04:12;54.95;53.45;56.65;;
66458;Laerm;56835;52.198;4.826;2023-04-25T00:04:23;54.98;53.16;56.55;;
66458;Laerm;56835;52.198;4.826;2023-04-25T00:04:33;54.84;52.30;56.45;;
66458;Laerm;56835;52.198;4.826;2023-04-25T00:04:43;54.90;53.21;56.76;;
66458;Laerm;56835;52.198;4.826;2023-04-25T00:04:53;54.95;53.30;56.42;;
66458;Laerm;56835;52.198;4.826;2023-04-25T00:05:04;54.90;52.90;56.19;;
66458;Laerm;56835;52.198;4.826;2023-04-25T00:05:14;54.91;53.18;56.42;;
66458;Laerm;56835;52.198;4.826;2023-04-25T00:05:26;54.97;53.23;56.29;;
66458;Laerm;56835;52.198;4.826;2023-04-25T00:05:36;54.94;52.27;56.62;;
66458;Laerm;56835;52.198;4.826;2023-04-25T00:05:47;54.94;52.23;56.22;;
66458;Laerm;56835;52.198;4.826;2023-04-25T00:05:58;54.97;52.44;56.56;;
66458;Laerm;56835;52.198;4.826;2023-04-25T00:06:12;54.97;53.35;56.54;;
66458;Laerm;56835;52.198;4.826;2023-04-25T00:06:22;54.85;52.97;56.02;;
66458;Laerm;56835;52.198;4.826;2023-04-25T00:06:36;54.95;52.72;56.55;;
66458;Laerm;56835;52.198;4.826;2023-04-25T00:06:46;54.93;52.25;56.59;;
66458;Laerm;56835;52.198;4.826;2023-04-25T00:06:57;54.95;53.07;56.36;;
66458;Laerm;56835;52.198;4.826;2023-04-25T00:07:07;54.98;53.06;56.27;;
66458;Laerm;56835;52.198;4.826;2023-04-25T00:07:17;54.92;53.10;56.54;;
66458;Laerm;56835;52.198;4.826;2023-04-25T00:07:28;54.98;52.93;56.85;;
66458;Laerm;56835;52.198;4.826;2023-04-25T00:07:38;55.00;53.34;56.24;;
66458;Laerm;56835;52.198;4.826;2023-04-25T00:07:49;54.94;52.70;56.46;;
66458;Laerm;56835;52.198;4.826;2023-04-25T00:07:59;54.97;53.36;56.39;;
66458;Laerm;56835;52.198;4.826;2023-04-25T00:08:10;54.93;53.36;56.47;;
66458;Laerm;56835;52.198;4.826;2023-04-25T00:08:20;54.92;53.26;56.38;;
66458;Laerm;56835;52.198;4.826;2023-04-25T00:08:30;54.98;53.34;56.55;;
66458;Laerm;56835;52.198;4.826;2023-04-25T00:08:41;54.95;53.26;56.11;;
66458;Laerm;56835;52.198;4.826;2023-04-25T00:08:51;54.95;53.11;56.34;;
66458;Laerm;56835;52.198;4.826;2023-04-25T00:09:02;54.95;53.12;56.41;;
66458;Laerm;56835;52.198;4.826;2023-04-25T00:09:13;54.94;52.93;56.36;;
66458;Laerm;56835;52.198;4.826;2023-04-25T00:09:23;55.02;53.39;56.36;;
66458;Laerm;56835;52.198;4.826;2023-04-25T00:09:34;54.95;53.09;56.33;;
66458;Laerm;56835;52.198;4.826;2023-04-25T00:09:44;55.01;52.77;56.57;;
66458;Laerm;56835;52.198;4.826;2023-04-25T00:09:54;55.01;53.01;56.60;;
66458;Laerm;56835;52.198;4.826;2023-04-25T00:10:05;54.97;52.58;56.21;;
66458;Laerm;56835;52.198;4.826;2023-04-25T00:10:15;55.09;53.17;56.52;;
66458;Laerm;56835;52.198;4.826;2023-04-25T00:10:26;55.07;53.12;56.47;;
66458;Laerm;56835;52.198;4.826;2023-04-25T00:10:36;55.15;53.22;56.55;;
66458;Laerm;56835;52.198;4.826;2023-04-25T00:10:46;55.10;53.11;56.45;;
66458;Laerm;56835;52.198;4.826;2023-04-25T00:10:57;55.03;53.34;56.59;;
66458;Laerm;56835;52.198;4.826;2023-04-25T00:11:07;54.97;53.16;56.75;;
66458;Laerm;56835;52.198;4.826;2023-04-25T00:11:17;54.97;53.09;56.22;;
66458;Laerm;56835;52.198;4.826;2023-04-25T00:11:27;54.99;52.92;56.32;;
66458;Laerm;56835;52.198;4.826;2023-04-25T00:11:38;54.97;52.82;56.32;;
66458;Laerm;56835;52.198;4.826;2023-04-25T00:11:48;54.93;52.83;56.24;;
66458;Laerm;56835;52.198;4.826;2023-04-25T00:11:58;55.00;53.28;56.63;;
66458;Laerm;56835;52.198;4.826;2023-04-25T00:12:08;55.02;53.27;56.41;;
66458;Laerm;56835;52.198;4.826;2023-04-25T00:12:19;55.06;53.30;56.34;;
66458;Laerm;56835;52.198;4.826;2023-04-25T00:12:30;55.11;53.07;56.80;;
66458;Laerm;56835;52.198;4.826;2023-04-25T00:12:40;55.13;53.11;56.48;;
66458;Laerm;56835;52.198;4.826;2023-04-25T00:12:51;55.06;53.46;56.31;;
66458;Laerm;56835;52.198;4.826;2023-04-25T00:13:01;55.02;53.11;56.44;;
66458;Laerm;56835;52.198;4.826;2023-04-25T00:13:12;55.03;52.36;56.44;;
66458;Laerm;56835;52.198;4.826;2023-04-25T00:13:23;55.00;53.12;56.84;;
66458;Laerm;56835;52.198;4.826;2023-04-25T00:13:35;54.97;53.33;56.45;;
66458;Laerm;56835;52.198;4.826;2023-04-25T00:13:45;54.76;53.05;56.22;;
66458;Laerm;56835;52.198;4.826;2023-04-25T00:13:56;55.01;52.71;56.32;;
66458;Laerm;56835;52.198;4.826;2023-04-25T00:14:07;55.00;53.21;56.44;;
66458;Laerm;56835;52.198;4.826;2023-04-25T00:14:17;55.01;53.11;56.61;;
66458;Laerm;56835;52.198;4.826;2023-04-25T00:14:28;55.05;52.78;56.53;;
66458;Laerm;56835;52.198;4.826;2023-04-25T00:14:39;54.98;53.31;56.51;;
66458;Laerm;56835;52.198;4.826;2023-04-25T00:14:49;55.06;53.33;56.51;;
66458;Laerm;56835;52.198;4.826;2023-04-25T00:14:59;54.95;51.59;56.31;;
66458;Laerm;56835;52.198;4.826;2023-04-25T00:15:11;55.02;53.10;56.34;;
66458;Laerm;56835;52.198;4.826;2023-04-25T00:15:21;55.01;52.90;56.48;;
66458;Laerm;56835;52.198;4.826;2023-04-25T00:15:32;54.97;52.54;56.48;;
66458;Laerm;56835;52.198;4.826;2023-04-25T00:15:42;54.97;53.07;56.45;;
66458;Laerm;56835;52.198;4.826;2023-04-25T00:15:53;55.02;53.01;56.48;;
66458;Laerm;56835;52.198;4.826;2023-04-25T00:16:03;55.04;53.21;56.59;;
66458;Laerm;56835;52.198;4.826;2023-04-25T00:16:14;55.01;53.24;56.34;;
66458;Laerm;56835;52.198;4.826;2023-04-25T00:16:25;55.04;53.02;56.41;;
66458;Laerm;56835;52.198;4.826;2023-04-25T00:16:37;55.04;53.23;56.56;;
66458;Laerm;56835;52.198;4.826;2023-04-25T00:16:47;54.99;53.23;56.64;;
66458;Laerm;56835;52.198;4.826;2023-04-25T00:16:58;55.01;53.28;56.36;;
66458;Laerm;56835;52.198;4.826;2023-04-25T00:17:08;55.04;53.52;56.35;;
66458;Laerm;56835;52.198;4.826;2023-04-25T00:17:19;55.03;53.43;56.47;;
66458;Laerm;56835;52.198;4.826;2023-04-25T00:17:29;55.03;52.86;56.34;;
66458;Laerm;56835;52.198;4.826;2023-04-25T00:17:41;55.02;52.75;56.40;;
66458;Laerm;56835;52.198;4.826;2023-04-25T00:17:52;55.05;52.77;56.66;;
66458;Laerm;56835;52.198;4.826;2023-04-25T00:18:02;55.02;53.16;56.51;;
66458;Laerm;56835;52.198;4.826;2023-04-25T00:18:13;55.03;52.94;56.91;;
66458;Laerm;56835;52.198;4.826;2023-04-25T00:18:23;54.99;52.72;56.53;;
66458;Laerm;56835;52.198;4.826;2023-04-25T00:18:34;55.05;53.28;56.35;;
66458;Laerm;56835;52.198;4.826;2023-04-25T00:18:44;54.97;53.04;56.50;;
66458;Laerm;56835;52.198;4.826;2023-04-25T00:19:01;54.97;53.21;56.29;;
66458;Laerm;56835;52.198;4.826;2023-04-25T00:19:13;55.01;53.13;56.60;;
66458;Laerm;56835;52.198;4.826;2023-04-25T00:19:23;55.03;52.92;56.56;;
66458;Laerm;56835;52.198;4.826;2023-04-25T00:19:33;54.97;53.14;56.68;;
66458;Laerm;56835;52.198;4.826;2023-04-25T00:19:45;55.03;52.91;56.43;;
66458;Laerm;56835;52.198;4.826;2023-04-25T00:19:56;55.16;53.31;56.59;;
66458;Laerm;56835;52.198;4.826;2023-04-25T00:20:08;55.11;53.39;56.75;;
66458;Laerm;56835;52.198;4.826;2023-04-25T00:20:19;55.03;53.39;56.78;;
66458;Laerm;56835;52.198;4.826;2023-04-25T00:20:29;54.98;52.97;56.68;;
66458;Laerm;56835;52.198;4.826;2023-04-25T00:20:40;55.01;52.86;56.56;;
66458;Laerm;56835;52.198;4.826;2023-04-25T00:20:50;55.03;53.01;56.49;;
66458;Laerm;56835;52.198;4.826;2023-04-25T00:21:00;55.00;52.75;56.64;;
66458;Laerm;56835;52.198;4.826;2023-04-25T00:21:10;54.98;52.88;56.48;;
66458;Laerm;56835;52.198;4.826;2023-04-25T00:21:21;55.05;53.25;56.44;;
66458;Laerm;56835;52.198;4.826;2023-04-25T00:21:32;54.99;53.37;56.65;;
66458;Laerm;56835;52.198;4.826;2023-04-25T00:21:42;54.99;53.07;56.25;;
66458;Laerm;56835;52.198;4.826;2023-04-25T00:21:56;55.05;53.19;56.76;;
66458;Laerm;56835;52.198;4.826;2023-04-25T00:22:06;55.02;52.94;56.56;;
66458;Laerm;56835;52.198;4.826;2023-04-25T00:22:17;54.99;53.29;56.50;;
66458;Laerm;56835;52.198;4.826;2023-04-25T00:22:27;54.99;53.21;56.43;;
66458;Laerm;56835;52.198;4.826;2023-04-25T00:22:37;55.02;53.09;56.51;;
66458;Laerm;56835;52.198;4.826;2023-04-25T00:22:47;55.03;53.19;56.43;;
66458;Laerm;56835;52.198;4.826;2023-04-25T00:22:58;55.02;52.75;56.29;;
66458;Laerm;56835;52.198;4.826;2023-04-25T00:23:08;55.01;52.92;56.22;;
66458;Laerm;56835;52.198;4.826;2023-04-25T00:23:18;55.10;53.36;56.76;;
66458;Laerm;56835;52.198;4.826;2023-04-25T00:23:28;55.15;53.44;56.60;;
66458;Laerm;56835;52.198;4.826;2023-04-25T00:23:39;55.05;52.66;56.43;;
66458;Laerm;56835;52.198;4.826;2023-04-25T00:23:49;55.02;52.68;56.28;;
66458;Laerm;56835;52.198;4.826;2023-04-25T00:24:00;55.02;52.91;56.58;;
66458;Laerm;56835;52.198;4.826;2023-04-25T00:24:10;55.00;52.79;56.36;;
66458;Laerm;56835;52.198;4.826;2023-04-25T00:24:20;55.13;53.58;56.84;;
66458;Laerm;56835;52.198;4.826;2023-04-25T00:24:31;55.12;53.32;56.55;;
66458;Laerm;56835;52.198;4.826;2023-04-25T00:24:41;55.13;53.18;56.85;;
66458;Laerm;56835;52.198;4.826;2023-04-25T00:24:51;55.11;52.68;56.31;;
66458;Laerm;56835;52.198;4.826;2023-04-25T00:25:04;55.11;53.25;56.59;;
66458;Laerm;56835;52.198;4.826;2023-04-25T00:25:14;55.14;53.73;56.49;;
66458;Laerm;56835;52.198;4.826;2023-04-25T00:25:25;55.13;52.64;56.54;;
66458;Laerm;56835;52.198;4.826;2023-04-25T00:25:35;55.11;53.12;56.66;;
66458;Laerm;56835;52.198;4.826;2023-04-25T00:25:46;55.08;53.35;56.44;;
66458;Laerm;56835;52.198;4.826;2023-04-25T00:25:56;55.03;53.40;56.37;;
66458;Laerm;56835;52.198;4.826;2023-04-25T00:26:06;55.08;53.57;56.35;;
66458;Laerm;56835;52.198;4.826;2023-04-25T00:26:17;55.02;53.15;56.43;;
66458;Laerm;56835;52.198;4.826;2023-04-25T00:26:27;55.07;51.94;56.39;;
66458;Laerm;56835;52.198;4.826;2023-04-25T00:26:38;55.11;53.39;56.29;;
66458;Laerm;56835;52.198;4.826;2023-04-25T00:26:48;55.07;53.23;56.53;;
66458;Laerm;56835;52.198;4.826;2023-04-25T00:26:58;55.02;53.56;56.81;;
66458;Laerm;56835;52.198;4.826;2023-04-25T00:27:09;55.04;53.12;56.43;;
66458;Laerm;56835;52.198;4.826;2023-04-25T00:27:19;55.08;53.40;56.77;;
66458;Laerm;56835;52.198;4.826;2023-04-25T00:27:29;55.10;53.20;56.52;;
66458;Laerm;56835;52.198;4.826;2023-04-25T00:27:39;55.02;52.69;56.72;;
66458;Laerm;56835;52.198;4.826;2023-04-25T00:27:51;55.05;51.60;56.79;;
66458;Laerm;56835;52.198;4.826;2023-04-25T00:28:01;55.01;53.05;56.55;;
66458;Laerm;56835;52.198;4.826;2023-04-25T00:28:12;55.07;52.76;56.47;;
66458;Laerm;56835;52.198;4.826;2023-04-25T00:28:22;54.96;52.33;56.55;;
66458;Laerm;56835;52.198;4.826;2023-04-25T00:28:32;55.01;53.68;56.67;;
66458;Laerm;56835;52.198;4.826;2023-04-25T00:28:43;55.02;53.28;56.38;;
66458;Laerm;56835;52.198;4.826;2023-04-25T00:28:53;55.10;53.48;56.50;;
66458;Laerm;56835;52.198;4.826;2023-04-25T00:29:03;55.11;53.79;56.71;;
66458;Laerm;56835;52.198;4.826;2023-04-25T00:29:13;54.98;53.20;56.27;;
66458;Laerm;56835;52.198;4.826;2023-04-25T00:29:24;55.18;53.66;56.63;;
66458;Laerm;56835;52.198;4.826;2023-04-25T00:29:34;55.16;53.25;56.47;;
66458;Laerm;56835;52.198;4.826;2023-04-25T00:29:44;55.11;53.20;57.00;;
66458;Laerm;56835;52.198;4.826;2023-04-25T00:29:55;55.10;53.02;56.58;;
66458;Laerm;56835;52.198;4.826;2023-04-25T00:30:05;55.12;53.31;56.57;;
66458;Laerm;56835;52.198;4.826;2023-04-25T00:30:15;55.13;53.32;56.63;;
66458;Laerm;56835;52.198;4.826;2023-04-25T00:30:26;55.21;53.45;56.59;;
66458;Laerm;56835;52.198;4.826;2023-04-25T00:30:36;55.15;53.40;56.99;;
66458;Laerm;56835;52.198;4.826;2023-04-25T00:30:46;55.01;53.13;56.30;;
66458;Laerm;56835;52.198;4.826;2023-04-25T00:30:56;55.09;52.42;56.27;;
66458;Laerm;56835;52.198;4.826;2023-04-25T00:31:07;55.04;53.19;56.80;;
66458;Laerm;56835;52.198;4.826;2023-04-25T00:31:17;55.03;53.27;56.69;;
66458;Laerm;56835;52.198;4.826;2023-04-25T00:31:27;55.03;53.17;56.70;;
66458;Laerm;56835;52.198;4.826;2023-04-25T00:31:39;55.05;53.15;56.27;;
66458;Laerm;56835;52.198;4.826;2023-04-25T00:31:49;55.07;52.62;56.37;;
66458;Laerm;56835;52.198;4.826;2023-04-25T00:31:59;55.11;53.07;56.83;;
66458;Laerm;56835;52.198;4.826;2023-04-25T00:32:10;55.08;53.16;56.49;;
66458;Laerm;56835;52.198;4.826;2023-04-25T00:32:20;55.06;53.45;56.69;;
66458;Laerm;56835;52.198;4.826;2023-04-25T00:32:31;55.05;53.20;56.55;;
66458;Laerm;56835;52.198;4.826;2023-04-25T00:32:41;55.04;53.05;56.57;;
66458;Laerm;56835;52.198;4.826;2023-04-25T00:32:51;55.10;53.30;56.87;;
66458;Laerm;56835;52.198;4.826;2023-04-25T00:33:02;55.06;52.87;57.00;;
66458;Laerm;56835;52.198;4.826;2023-04-25T00:33:12;54.99;53.28;56.51;;
66458;Laerm;56835;52.198;4.826;2023-04-25T00:33:22;55.07;53.16;56.41;;
66458;Laerm;56835;52.198;4.826;2023-04-25T00:33:33;55.11;53.47;56.34;;
66458;Laerm;56835;52.198;4.826;2023-04-25T00:33:43;55.07;53.07;56.58;;
66458;Laerm;56835;52.198;4.826;2023-04-25T00:33:53;55.11;52.90;56.47;;
66458;Laerm;56835;52.198;4.826;2023-04-25T00:34:03;55.05;53.14;56.83;;
66458;Laerm;56835;52.198;4.826;2023-04-25T00:34:14;55.07;53.21;56.29;;
66458;Laerm;56835;52.198;4.826;2023-04-25T00:34:24;55.05;53.15;56.33;;
66458;Laerm;56835;52.198;4.826;2023-04-25T00:34:34;55.06;53.27;57.01;;
66458;Laerm;56835;52.198;4.826;2023-04-25T00:34:44;55.03;53.05;56.63;;
66458;Laerm;56835;52.198;4.826;2023-04-25T00:34:55;55.04;53.00;56.76;;
66458;Laerm;56835;52.198;4.826;2023-04-25T00:35:05;55.06;52.77;56.99;;
66458;Laerm;56835;52.198;4.826;2023-04-25T00:35:16;55.05;53.10;56.57;;
66458;Laerm;56835;52.198;4.826;2023-04-25T00:35:26;55.00;53.02;56.65;;
66458;Laerm;56835;52.198;4.826;2023-04-25T00:35:37;55.09;53.31;56.37;;
66458;Laerm;56835;52.198;4.826;2023-04-25T00:35:48;55.03;53.54;56.27;;
66458;Laerm;56835;52.198;4.826;2023-04-25T00:35:58;55.06;53.37;56.38;;
66458;Laerm;56835;52.198;4.826;2023-04-25T00:36:08;55.06;53.53;56.55;;
66458;Laerm;56835;52.198;4.826;2023-04-25T00:36:19;55.00;52.62;56.67;;
66458;Laerm;56835;52.198;4.826;2023-04-25T00:36:29;55.06;52.91;56.82;;
66458;Laerm;56835;52.198;4.826;2023-04-25T00:36:40;55.00;53.28;56.50;;
66458;Laerm;56835;52.198;4.826;2023-04-25T00:36:50;55.08;53.07;56.33;;
66458;Laerm;56835;52.198;4.826;2023-04-25T00:37:01;55.02;52.95;56.58;;
66458;Laerm;56835;52.198;4.826;2023-04-25T00:37:14;55.05;53.05;56.46;;
66458;Laerm;56835;52.198;4.826;2023-04-25T00:37:25;55.09;53.31;56.66;;
66458;Laerm;56835;52.198;4.826;2023-04-25T00:37:35;55.14;52.93;56.57;;
66458;Laerm;56835;52.198;4.826;2023-04-25T00:37:45;55.03;52.93;56.64;;
66458;Laerm;56835;52.198;4.826;2023-04-25T00:37:56;55.09;53.05;56.89;;
66458;Laerm;56835;52.198;4.826;2023-04-25T00:38:06;55.10;52.95;56.56;;
66458;Laerm;56835;52.198;4.826;2023-04-25T00:38:17;55.01;53.35;56.39;;
66458;Laerm;56835;52.198;4.826;2023-04-25T00:38:27;55.06;53.32;56.63;;
66458;Laerm;56835;52.198;4.826;2023-04-25T00:38:37;55.07;53.29;56.31;;
66458;Laerm;56835;52.198;4.826;2023-04-25T00:38:48;55.08;52.90;56.83;;
66458;Laerm;56835;52.198;4.826;2023-04-25T00:38:58;55.11;53.17;56.60;;
66458;Laerm;56835;52.198;4.826;2023-04-25T00:39:08;55.05;52.97;56.48;;
66458;Laerm;56835;52.198;4.826;2023-04-25T00:39:19;55.08;53.29;56.42;;
66458;Laerm;56835;52.198;4.826;2023-04-25T00:39:29;55.15;53.53;56.99;;
66458;Laerm;56835;52.198;4.826;2023-04-25T00:39:39;55.04;53.09;56.38;;
66458;Laerm;56835;52.198;4.826;2023-04-25T00:39:50;55.09;53.12;56.80;;
66458;Laerm;56835;52.198;4.826;2023-04-25T00:40:00;55.15;53.27;56.82;;
66458;Laerm;56835;52.198;4.826;2023-04-25T00:40:10;55.18;53.14;56.59;;
66458;Laerm;56835;52.198;4.826;2023-04-25T00:40:21;55.14;52.52;56.58;;
66458;Laerm;56835;52.198;4.826;2023-04-25T00:40:31;55.14;53.43;56.39;;
66458;Laerm;56835;52.198;4.826;2023-04-25T00:40:42;55.19;53.19;57.04;;
66458;Laerm;56835;52.198;4.826;2023-04-25T00:40:53;55.17;53.41;56.67;;
66458;Laerm;56835;52.198;4.826;2023-04-25T00:41:06;55.11;52.77;56.59;;
66458;Laerm;56835;52.198;4.826;2023-04-25T00:41:16;55.09;53.31;56.59;;
66458;Laerm;56835;52.198;4.826;2023-04-25T00:41:26;55.06;53.63;56.78;;
66458;Laerm;56835;52.198;4.826;2023-04-25T00:41:37;55.06;52.61;56.67;;
66458;Laerm;56835;52.198;4.826;2023-04-25T00:41:48;55.04;53.22;56.48;;
66458;Laerm;56835;52.198;4.826;2023-04-25T00:41:58;55.13;52.77;56.50;;
66458;Laerm;56835;52.198;4.826;2023-04-25T00:42:09;55.07;53.02;56.35;;
66458;Laerm;56835;52.198;4.826;2023-04-25T00:42:19;55.06;52.76;56.64;;
66458;Laerm;56835;52.198;4.826;2023-04-25T00:42:30;55.10;53.19;56.54;;
66458;Laerm;56835;52.198;4.826;2023-04-25T00:42:40;55.10;53.24;56.45;;
66458;Laerm;56835;52.198;4.826;2023-04-25T00:42:51;55.06;53.06;56.47;;
66458;Laerm;56835;52.198;4.826;2023-04-25T00:43:02;55.08;53.55;56.72;;
66458;Laerm;56835;52.198;4.826;2023-04-25T00:43:12;55.07;53.15;56.82;;
66458;Laerm;56835;52.198;4.826;2023-04-25T00:43:26;55.03;53.59;56.53;;
66458;Laerm;56835;52.198;4.826;2023-04-25T00:43:37;55.10;53.27;56.41;;
66458;Laerm;56835;52.198;4.826;2023-04-25T00:43:48;55.06;53.41;56.39;;
66458;Laerm;56835;52.198;4.826;2023-04-25T00:43:58;55.07;52.69;56.45;;
66458;Laerm;56835;52.198;4.826;2023-04-25T00:44:09;55.05;52.86;56.40;;
66458;Laerm;56835;52.198;4.826;2023-04-25T00:44:21;55.05;52.99;56.57;;
66458;Laerm;56835;52.198;4.826;2023-04-25T00:44:32;55.10;53.36;56.37;;
66458;Laerm;56835;52.198;4.826;2023-04-25T00:44:43;55.09;53.34;56.53;;
66458;Laerm;56835;52.198;4.826;2023-04-25T00:44:55;55.12;53.19;56.74;;
66458;Laerm;56835;52.198;4.826;2023-04-25T00:45:05;55.01;53.12;56.55;;
66458;Laerm;56835;52.198;4.826;2023-04-25T00:45:17;55.10;53.44;56.33;;
66458;Laerm;56835;52.198;4.826;2023-04-25T00:45:28;55.07;52.82;56.28;;
66458;Laerm;56835;52.198;4.826;2023-04-25T00:45:39;55.03;52.78;56.45;;
66458;Laerm;56835;52.198;4.826;2023-04-25T00:45:49;55.09;53.22;56.54;;
66458;Laerm;56835;52.198;4.826;2023-04-25T00:46:00;55.06;53.14;56.49;;
66458;Laerm;56835;52.198;4.826;2023-04-25T00:46:11;55.16;52.97;56.66;;
66458;Laerm;56835;52.198;4.826;2023-04-25T00:46:21;55.17;52.93;56.49;;
66458;Laerm;56835;52.198;4.826;2023-04-25T00:46:31;55.09;52.94;56.74;;
66458;Laerm;56835;52.198;4.826;2023-04-25T00:46:42;55.03;52.91;56.33;;
66458;Laerm;56835;52.198;4.826;2023-04-25T00:46:53;55.04;53.44;56.48;;
66458;Laerm;56835;52.198;4.826;2023-04-25T00:47:03;55.06;53.16;56.51;;
66458;Laerm;56835;52.198;4.826;2023-04-25T00:47:14;55.11;53.31;56.36;;
66458;Laerm;56835;52.198;4.826;2023-04-25T00:47:25;55.09;53.32;56.84;;
66458;Laerm;56835;52.198;4.826;2023-04-25T00:47:57;55.11;53.05;56.95;;
66458;Laerm;56835;52.198;4.826;2023-04-25T00:48:08;55.14;53.52;56.59;;
66458;Laerm;56835;52.198;4.826;2023-04-25T00:48:21;55.19;53.52;56.44;;
66458;Laerm;56835;52.198;4.826;2023-04-25T00:48:31;55.07;53.42;56.81;;
66458;Laerm;56835;52.198;4.826;2023-04-25T00:48:42;55.09;53.20;56.78;;
66458;Laerm;56835;52.198;4.826;2023-04-25T00:48:52;55.13;53.31;56.54;;
66458;Laerm;56835;52.198;4.826;2023-04-25T00:49:02;55.09;53.26;56.55;;
66458;Laerm;56835;52.198;4.826;2023-04-25T00:49:12;55.06;53.00;56.73;;
66458;Laerm;56835;52.198;4.826;2023-04-25T00:49:25;55.05;53.01;56.48;;
66458;Laerm;56835;52.198;4.826;2023-04-25T00:49:35;55.12;53.28;56.49;;
66458;Laerm;56835;52.198;4.826;2023-04-25T00:49:46;55.13;53.42;56.55;;
66458;Laerm;56835;52.198;4.826;2023-04-25T00:49:56;55.08;53.34;56.61;;
66458;Laerm;56835;52.198;4.826;2023-04-25T00:50:06;55.09;52.97;56.29;;
66458;Laerm;56835;52.198;4.826;2023-04-25T00:50:17;55.10;53.13;56.64;;
66458;Laerm;56835;52.198;4.826;2023-04-25T00:50:27;55.17;53.28;56.68;;
66458;Laerm;56835;52.198;4.826;2023-04-25T00:50:37;55.07;52.95;56.51;;
66458;Laerm;56835;52.198;4.826;2023-04-25T00:50:52;55.04;52.80;56.56;;
66458;Laerm;56835;52.198;4.826;2023-04-25T00:51:03;55.08;53.15;56.61;;
66458;Laerm;56835;52.198;4.826;2023-04-25T00:51:13;55.06;53.27;56.77;;
66458;Laerm;56835;52.198;4.826;2023-04-25T00:51:25;55.07;52.90;56.36;;
66458;Laerm;56835;52.198;4.826;2023-04-25T00:51:36;55.10;53.25;56.62;;
66458;Laerm;56835;52.198;4.826;2023-04-25T00:51:46;55.13;53.13;56.52;;
66458;Laerm;56835;52.198;4.826;2023-04-25T00:51:57;55.08;53.41;56.34;;
66458;Laerm;56835;52.198;4.826;2023-04-25T00:52:07;55.00;53.01;56.29;;
66458;Laerm;56835;52.198;4.826;2023-04-25T00:52:17;55.09;53.23;56.41;;
66458;Laerm;56835;52.198;4.826;2023-04-25T00:52:28;55.09;53.41;56.35;;
66458;Laerm;56835;52.198;4.826;2023-04-25T00:52:38;55.03;53.04;56.75;;
66458;Laerm;56835;52.198;4.826;2023-04-25T00:52:50;55.05;53.29;56.57;;
66458;Laerm;56835;52.198;4.826;2023-04-25T00:53:01;55.05;52.70;56.56;;
66458;Laerm;56835;52.198;4.826;2023-04-25T00:53:11;55.09;53.59;56.59;;
66458;Laerm;56835;52.198;4.826;2023-04-25T00:53:22;55.07;52.97;56.53;;
66458;Laerm;56835;52.198;4.826;2023-04-25T00:53:33;55.05;52.78;56.58;;
66458;Laerm;56835;52.198;4.826;2023-04-25T00:53:43;55.07;53.56;56.55;;
66458;Laerm;56835;52.198;4.826;2023-04-25T00:53:54;55.15;52.99;56.69;;
66458;Laerm;56835;52.198;4.826;2023-04-25T00:54:05;55.08;53.41;56.37;;
66458;Laerm;56835;52.198;4.826;2023-04-25T00:54:15;55.06;53.01;57.10;;
66458;Laerm;56835;52.198;4.826;2023-04-25T00:54:25;55.05;52.81;56.76;;
66458;Laerm;56835;52.198;4.826;2023-04-25T00:54:36;55.06;53.11;56.66;;
66458;Laerm;56835;52.198;4.826;2023-04-25T00:54:46;55.07;51.65;56.73;;
66458;Laerm;56835;52.198;4.826;2023-04-25T00:54:56;55.03;52.44;56.43;;
66458;Laerm;56835;52.198;4.826;2023-04-25T00:55:07;55.02;53.29;56.46;;
66458;Laerm;56835;52.198;4.826;2023-04-25T00:55:18;55.01;53.13;56.47;;
66458;Laerm;56835;52.198;4.826;2023-04-25T00:55:28;55.08;53.74;56.36;;
66458;Laerm;56835;52.198;4.826;2023-04-25T00:55:39;55.02;52.63;56.45;;
66458;Laerm;56835;52.198;4.826;2023-04-25T00:55:50;55.04;52.79;56.75;;
66458;Laerm;56835;52.198;4.826;2023-04-25T00:56:03;55.08;53.44;56.20;;
66458;Laerm;56835;52.198;4.826;2023-04-25T00:56:14;55.02;53.26;56.59;;
66458;Laerm;56835;52.198;4.826;2023-04-25T00:56:24;55.09;52.46;57.02;;
66458;Laerm;56835;52.198;4.826;2023-04-25T00:56:35;55.08;53.45;56.42;;
66458;Laerm;56835;52.198;4.826;2023-04-25T00:56:45;54.99;53.28;56.52;;
66458;Laerm;56835;52.198;4.826;2023-04-25T00:56:55;55.01;53.09;56.39;;
66458;Laerm;56835;52.198;4.826;2023-04-25T00:57:06;54.96;52.95;56.29;;
66458;Laerm;56835;52.198;4.826;2023-04-25T00:57:16;55.07;53.60;56.43;;
66458;Laerm;56835;52.198;4.826;2023-04-25T00:57:26;55.12;52.90;56.40;;
66458;Laerm;56835;52.198;4.826;2023-04-25T00:57:37;55.08;53.36;56.65;;
66458;Laerm;56835;52.198;4.826;2023-04-25T00:57:47;54.99;52.90;56.27;;
66458;Laerm;56835;52.198;4.826;2023-04-25T00:57:57;55.07;53.18;56.54;;
66458;Laerm;56835;52.198;4.826;2023-04-25T00:58:08;55.05;52.53;56.43;;
66458;Laerm;56835;52.198;4.826;2023-04-25T00:58:18;55.07;53.65;56.41;;
66458;Laerm;56835;52.198;4.826;2023-04-25T00:58:29;54.98;53.03;56.87;;
66458;Laerm;56835;52.198;4.826;2023-04-25T00:58:40;55.04;53.24;56.27;;
66458;Laerm;56835;52.198;4.826;2023-04-25T00:58:51;55.01;53.32;56.52;;
66458;Laerm;56835;52.198;4.826;2023-04-25T00:59:02;55.04;53.03;56.45;;
66458;Laerm;56835;52.198;4.826;2023-04-25T00:59:13;54.99;53.52;56.45;;
66458;Laerm;56835;52.198;4.826;2023-04-25T00:59:23;54.98;52.77;56.46;;
66458;Laerm;56835;52.198;4.826;2023-04-25T00:59:33;54.96;53.30;56.52;;
66458;Laerm;56835;52.198;4.826;2023-04-25T00:59:44;54.99;52.70;56.89;;
66458;Laerm;56835;52.198;4.826;2023-04-25T00:59:55;55.03;52.98;56.58;;